Time;durP1;ratioP1;P1;durP2;ratioP2;P2;SDS_P1;SDS_P2;PMS_P1;PMS_P2;Temp;Humidity;BMP_temperature;BMP_pressure;BME280_temperature;BME280_humidity;BME280_pressure;Samples;Min_cycle;Max_cycle;Signal;HPM_P1;HPM_P2
2023/04/17 05:33:26;;;;;;;42.57;25.70;;;;;;;6.79;100.00;95972.53;6180587;23;20229;-82
2023/04/17 05:36:06;;;;;;;44.17;26.63;;;;;;;6.69;100.00;95973.34;6124911;23;20523;-82
2023/04/17 05:38:46;;;;;;;45.27;28.23;;;;;;;6.48;100.00;95965.44;6096742;23;20269;-83
2023/04/17 05:41:18;;;;;;;47.33;27.17;;;;;;;6.65;100.00;95966.78;6095773;23;20638;-82
2023/04/17 05:43:56;;;;;;;45.00;27.63;;;;;;;6.60;100.00;95969.69;6120769;23;20247;-84
2023/04/17 05:46:48;;;;;;;42.33;26.83;;;;;;;6.73;100.00;95975.59;6096689;23;20190;-83
2023/04/17 05:57:12;;;;;;;43.03;26.30;;;;;;;6.78;100.00;95983.81;6033552;23;20196;-82
2023/04/17 05:59:53;;;;;;;42.63;26.93;;;;;;;6.88;100.00;95972.78;6010525;23;20177;-83
2023/04/17 06:02:42;;;;;;;46.97;29.07;;;;;;;6.80;100.00;95970.78;6028175;23;20631;-83
2023/04/17 06:13:02;;;;;;;;;;;;;;;;;;;;;
2023/04/17 06:16:25;;;;;;;40.43;26.10;;;;;;;6.81;100.00;95973.28;5954196;24;20239;-83
2023/04/17 06:22:45;;;;;;;48.97;27.03;;;;;;;6.68;100.00;95976.88;5949141;24;20217;-83
2023/04/17 06:28:59;;;;;;;42.83;26.10;;;;;;;6.81;100.00;95977.63;5950644;24;20159;-83
2023/04/17 06:31:40;;;;;;;;;;;;;;;;;;;;;
2023/04/17 06:34:13;;;;;;;38.37;24.57;;;;;;;6.62;100.00;95983.28;5952788;24;20243;-83
2023/04/17 06:36:44;;;;;;;39.37;26.17;;;;;;;6.68;100.00;95982.03;5949627;24;20206;-83
2023/04/17 06:39:09;;;;;;;40.00;25.23;;;;;;;6.62;100.00;95987.63;5927082;24;20251;-83
2023/04/17 06:42:01;;;;;;;;;;;;;;;;;;;;;
2023/04/17 06:44:29;;;;;;;47.43;26.50;;;;;;;6.75;100.00;95986.63;5924658;24;20236;-84
2023/04/17 06:46:57;;;;;;;47.67;27.23;;;;;;;6.58;100.00;95987.03;5899374;24;20217;-82
2023/04/17 06:49:32;;;;;;;82.03;28.60;;;;;;;6.75;100.00;95988.38;5926249;24;20611;-83
2023/04/17 06:52:10;;;;;;;;;;;;;;;;;;;;;
2023/04/17 06:54:37;;;;;;;145.43;30.60;;;;;;;6.90;100.00;95991.59;5873068;24;20201;-84
2023/04/17 06:57:11;;;;;;;304.43;38.97;;;;;;;6.71;100.00;95992.94;5869261;24;20640;-82
2023/04/17 07:00:03;;;;;;;166.60;30.27;;;;;;;6.56;100.00;96003.59;5930784;24;20199;-83
2023/04/17 07:02:29;;;;;;;119.10;28.10;;;;;;;6.72;100.00;95991.22;5979113;24;20246;-81
2023/04/17 07:05:12;;;;;;;67.60;27.20;;;;;;;6.64;100.00;95996.94;5982625;23;20589;-81
2023/04/17 07:07:54;;;;;;;43.07;25.27;;;;;;;6.84;100.00;96000.63;6014463;23;20192;-82
2023/04/17 07:14:06;;;;;;;92.40;26.60;;;;;;;6.73;100.00;96001.41;6008085;23;20590;-83
2023/04/17 07:16:46;;;;;;;39.37;24.53;;;;;;;7.01;100.00;96001.94;6005552;23;20182;-83
2023/04/17 07:19:14;;;;;;;41.27;24.60;;;;;;;7.12;100.00;96007.13;5962889;23;20179;-83
2023/04/17 07:21:39;;;;;;;36.80;23.63;;;;;;;6.97;100.00;96009.06;5983078;23;20175;-81
2023/04/17 07:24:34;;;;;;;36.13;22.80;;;;;;;7.00;100.00;96008.88;6006582;23;20173;-84
2023/04/17 07:27:06;;;;;;;36.67;22.93;;;;;;;7.00;100.00;96002.88;6064653;23;20319;-81
2023/04/17 07:29:55;;;;;;;34.30;21.87;;;;;;;7.17;100.00;96012.78;6043848;23;20258;-81
2023/04/17 07:33:09;;;;;;;;;;;;;;;;;;;;;
2023/04/17 07:36:15;;;;;;;;;;;;;;;;;;;;;
2023/04/17 07:42:44;;;;;;;27.57;19.37;;;;;;;7.25;100.00;96009.63;6095887;23;20160;-85
2023/04/17 07:45:22;;;;;;;25.73;19.17;;;;;;;7.04;100.00;96019.78;6094732;23;20611;-85
2023/04/17 07:48:03;;;;;;;27.97;19.17;;;;;;;6.95;100.00;96020.47;6067943;23;20280;-82
2023/04/17 07:53:42;;;;;;;31.77;20.67;;;;;;;7.26;100.00;96014.66;6097445;23;20626;-84
2023/04/17 07:56:49;;;;;;;;;;;;;;;;;;;;;
2023/04/17 08:02:36;;;;;;;23.80;17.30;;;;;;;7.10;100.00;96025.31;6007689;23;20177;-84
2023/04/17 08:05:03;;;;;;;23.17;16.80;;;;;;;7.21;100.00;96021.09;5941982;24;20611;-83
2023/04/17 08:07:50;;;;;;;23.40;17.07;;;;;;;7.28;100.00;96023.13;5951618;24;20911;-85
2023/04/17 08:10:16;;;;;;;27.47;18.43;;;;;;;7.23;100.00;96021.81;5930696;24;20156;-84
2023/04/17 08:12:44;;;;;;;23.87;16.80;;;;;;;7.32;100.00;96028.84;5929310;24;20168;-82
2023/04/17 08:15:10;;;;;;;23.43;17.37;;;;;;;7.31;100.00;96025.44;5929629;24;20168;-82
2023/04/17 08:17:41;;;;;;;27.00;18.07;;;;;;;7.48;100.00;96036.28;5927920;24;20733;-84
2023/04/17 08:20:22;;;;;;;26.63;17.90;;;;;;;7.48;100.00;96037.09;5956797;24;20192;-83
2023/04/17 08:22:50;;;;;;;22.63;16.47;;;;;;;7.70;100.00;96032.91;5936907;24;20171;-84
2023/04/17 08:25:24;;;;;;;23.83;17.47;;;;;;;7.72;100.00;96042.16;5933573;24;20615;-84
2023/04/17 08:27:58;;;;;;;22.87;16.37;;;;;;;7.62;100.00;96036.88;6014746;23;20624;-85
2023/04/17 08:30:48;;;;;;;21.10;15.60;;;;;;;7.56;100.00;96036.53;6059561;23;20261;-84
2023/04/17 08:33:22;;;;;;;20.07;15.03;;;;;;;7.50;100.00;96042.97;6023774;23;20165;-84
2023/04/17 08:36:08;;;;;;;21.53;14.83;;;;;;;7.30;100.00;96039.31;6044301;23;20240;-84
2023/04/17 08:38:34;;;;;;;24.97;16.07;;;;;;;7.36;100.00;96033.69;6039909;23;20236;-84
2023/04/17 08:41:12;;;;;;;21.37;16.03;;;;;;;7.47;100.00;96038.03;6046362;23;20672;-82
2023/04/17 08:44:00;;;;;;;;;;;;;;;;;;;;;
2023/04/17 08:46:29;;;;;;;22.90;15.60;;;;;;;7.79;100.00;96050.28;6150167;23;20249;-82
2023/04/17 08:48:55;;;;;;;25.57;18.23;;;;;;;7.75;100.00;96048.84;6178313;23;20151;-83
2023/04/17 08:51:26;;;;;;;19.97;15.60;;;;;;;7.55;100.00;96045.22;6130842;23;20174;-85
2023/04/17 08:53:53;;;;;;;22.87;16.50;;;;;;;7.98;100.00;96047.09;6131048;23;20155;-83
2023/04/17 08:56:18;;;;;;;21.70;16.30;;;;;;;7.88;100.00;96052.16;6153561;23;20155;-83
2023/04/17 08:58:44;;;;;;;21.30;15.97;;;;;;;7.67;100.00;96049.44;6156248;23;20210;-83
2023/04/17 09:01:10;;;;;;;20.23;15.80;;;;;;;7.70;100.00;96049.22;6156107;23;20155;-85
2023/04/17 09:03:43;;;;;;;21.30;15.63;;;;;;;7.66;100.00;96050.38;6156595;23;20240;-83
2023/04/17 09:06:12;;;;;;;19.37;14.33;;;;;;;7.69;100.00;96049.34;6153436;23;20179;-85
2023/04/17 09:08:39;;;;;;;23.03;17.80;;;;;;;7.89;100.00;96058.97;6108276;23;20251;-82
2023/04/17 09:11:27;;;;;;;24.73;16.57;;;;;;;7.79;100.00;96053.69;6130668;23;20167;-82
2023/04/17 09:13:55;;;;;;;22.03;16.40;;;;;;;7.75;100.00;96054.03;6130136;23;20167;-83
2023/04/17 09:16:27;;;;;;;20.70;16.27;;;;;;;7.95;100.00;96055.88;6131420;23;20191;-83
2023/04/17 09:19:06;;;;;;;30.50;21.00;;;;;;;8.01;100.00;96055.41;6158689;23;20170;-86
2023/04/17 09:21:48;;;;;;;20.33;16.60;;;;;;;7.80;100.00;96055.31;6160545;23;20167;-83
2023/04/17 09:24:14;;;;;;;20.00;15.10;;;;;;;7.71;100.00;96063.78;6130576;23;20160;-83
2023/04/17 09:26:39;;;;;;;20.80;17.30;;;;;;;7.65;100.00;96062.47;6150812;23;20210;-83
2023/04/17 09:29:13;;;;;;;23.70;17.47;;;;;;;7.83;100.00;96059.44;6153958;23;20194;-83
2023/04/17 09:31:41;;;;;;;24.97;17.80;;;;;;;7.69;100.00;96060.50;6132149;23;20151;-82
2023/04/17 09:34:08;;;;;;;26.60;18.07;;;;;;;7.64;100.00;96060.03;6129210;23;20254;-83
2023/04/17 09:36:38;;;;;;;24.20;17.93;;;;;;;7.68;100.00;96061.41;6150607;23;20183;-83
2023/04/17 09:39:05;;;;;;;24.80;18.77;;;;;;;7.73;100.00;96066.25;6153201;23;20178;-84
2023/04/17 09:41:33;;;;;;;21.93;16.30;;;;;;;7.84;100.00;96061.06;6128161;23;20167;-83
2023/04/17 09:44:04;;;;;;;24.03;17.07;;;;;;;7.77;100.00;96065.88;6153369;23;20139;-83
2023/04/17 09:46:41;;;;;;;23.37;17.23;;;;;;;7.90;100.00;96068.38;6153123;23;20206;-83
2023/04/17 09:49:17;;;;;;;23.90;18.93;;;;;;;7.71;100.00;96065.56;6130420;23;20226;-84
2023/04/17 09:51:43;;;;;;;25.57;17.53;;;;;;;8.01;100.00;96070.13;6128806;23;20155;-82
2023/04/17 09:54:11;;;;;;;25.37;18.53;;;;;;;8.29;100.00;96069.59;6128150;23;20246;-83
2023/04/17 09:56:36;;;;;;;23.63;17.13;;;;;;;8.27;100.00;96068.91;6150809;23;20202;-84
2023/04/17 09:59:06;;;;;;;19.03;14.63;;;;;;;7.98;100.00;96067.78;6152150;23;20569;-83
2023/04/17 10:01:32;;;;;;;19.80;15.20;;;;;;;7.99;100.00;96070.25;6153998;23;20221;-83
2023/04/17 10:03:58;;;;;;;17.90;14.00;;;;;;;7.82;100.00;96068.13;6153719;23;20163;-83
2023/04/17 10:06:28;;;;;;;19.07;13.97;;;;;;;8.11;100.00;96068.44;6130860;23;20172;-82
2023/04/17 10:08:53;;;;;;;17.20;13.97;;;;;;;8.10;100.00;96065.03;6173037;23;20116;-82
2023/04/17 10:11:22;;;;;;;21.67;14.93;;;;;;;8.00;100.00;96071.06;6157310;23;20162;-81
2023/04/17 10:13:54;;;;;;;20.63;15.30;;;;;;;8.24;100.00;96064.81;6182256;23;20143;-82
2023/04/17 10:16:32;;;;;;;20.87;14.97;;;;;;;8.31;100.00;96066.91;6156028;23;20146;-81
2023/04/17 10:19:23;;;;;;;24.03;17.77;;;;;;;8.59;100.00;96058.63;6181300;23;20215;-81
2023/04/17 10:22:17;;;;;;;23.23;16.33;;;;;;;8.99;100.00;96052.78;6182488;23;20167;-83
2023/04/17 10:24:42;;;;;;;20.27;15.07;;;;;;;9.09;99.77;96051.09;6180079;23;20143;-82
2023/04/17 10:27:23;;;;;;;18.07;13.70;;;;;;;8.75;98.50;96053.03;6161803;23;20194;-85
2023/04/17 10:29:59;;;;;;;16.57;14.10;;;;;;;9.10;97.73;96057.94;6154943;23;20136;-82
2023/04/17 10:32:37;;;;;;;17.87;13.63;;;;;;;9.49;96.47;96045.22;6127044;23;20667;-84
2023/04/17 10:35:44;;;;;;;16.87;12.80;;;;;;;9.81;94.02;96045.91;6152591;23;20612;-83
2023/04/17 10:38:17;;;;;;;15.47;12.90;;;;;;;9.74;94.37;96051.75;6119171;23;20190;-85
2023/04/17 10:40:45;;;;;;;15.40;12.33;;;;;;;10.05;91.98;96042.16;6126412;23;20205;-83
2023/04/17 10:43:12;;;;;;;15.67;12.83;;;;;;;10.44;91.07;96051.72;6150801;23;20171;-83
2023/04/17 10:45:58;;;;;;;14.80;11.47;;;;;;;10.73;88.08;96050.91;6150279;23;20241;-84
2023/04/17 10:48:37;;;;;;;12.27;10.53;;;;;;;10.64;88.44;96041.34;6150439;23;20183;-83
2023/04/17 10:51:33;;;;;;;12.00;10.07;;;;;;;10.80;86.78;96038.22;6127124;23;20161;-83
2023/04/17 10:54:40;;;;;;;12.30;9.60;;;;;;;10.82;87.87;96038.88;6150139;23;20242;-84
2023/04/17 10:57:09;;;;;;;11.83;9.67;;;;;;;10.91;86.90;96036.28;6128066;23;20210;-85
2023/04/17 10:59:55;;;;;;;12.20;10.90;;;;;;;10.57;90.07;96029.84;6128035;23;20171;-84
2023/04/17 11:02:32;;;;;;;14.37;10.90;;;;;;;10.86;88.43;96029.84;6129492;23;20169;-85
2023/04/17 11:09:22;;;;;;;;;;;;;;;;;;;;;
2023/04/17 11:11:44;;;;;;;10.40;9.30;;;;;;;11.27;84.14;96031.31;6108718;23;20253;-84
2023/04/17 11:35:29;;;;;;;7.40;6.47;;;;;;;10.13;86.75;96022.38;5890354;24;20155;-82
2023/04/17 12:50:04;;;;;;;6.30;5.70;;;;;;;10.52;77.57;96016.47;6175957;23;20519;-86
2023/04/17 12:59:20;;;;;;;7.10;5.97;;;;;;;11.00;77.25;96017.25;6182643;23;20207;-86
2023/04/17 14:04:34;;;;;;;;;;;;;;;;;;;;;
2023/04/17 14:07:49;;;;;;;7.17;5.17;;;;;;;10.06;75.95;95984.94;5961515;24;20269;-85
2023/04/17 14:10:24;;;;;;;6.57;5.60;;;;;;;10.31;75.31;95988.00;5973088;24;20166;-85
2023/04/17 14:13:43;;;;;;;;;;;;;;;;;;;;;
2023/04/17 14:27:17;;;;;;;7.20;6.13;;;;;;;10.00;75.05;95989.84;6174226;23;20241;-84
2023/04/17 14:33:50;;;;;;;9.23;7.40;;;;;;;10.54;74.60;95988.59;6122555;23;20171;-86
2023/04/17 14:47:12;;;;;;;;;;;;;;;;;;;;;
2023/04/17 14:57:41;;;;;;;;;;;;;;;;;;;;;
2023/04/17 15:04:12;;;;;;;7.20;6.37;;;;;;;10.10;76.36;95982.91;5951259;24;20250;-84
2023/04/17 15:13:47;;;;;;;7.83;6.80;;;;;;;9.66;77.61;95984.97;5867979;24;20208;-82
2023/04/17 15:16:22;;;;;;;8.17;6.63;;;;;;;9.64;78.49;95986.88;5927210;24;20168;-82
2023/04/17 15:20:23;;;;;;;8.40;7.33;;;;;;;9.96;77.46;95985.88;5951771;24;20306;-84
2023/04/17 15:23:20;;;;;;;8.20;6.40;;;;;;;10.08;77.42;95992.59;5898819;24;20184;-82
2023/04/17 15:26:04;;;;;;;8.33;6.83;;;;;;;9.98;77.18;95992.56;5815504;24;20171;-83
2023/04/17 15:28:38;;;;;;;7.47;6.57;;;;;;;9.93;76.94;95987.78;5816390;24;20168;-85
2023/04/17 16:04:12;;;;;;;7.73;5.83;;;;;;;9.19;78.72;95981.19;6182641;23;20202;-82
2023/04/17 16:14:31;;;;;;;;;;;;;;;;;;;;;
2023/04/17 19:20:51;;;;;;;5.57;4.47;;;;;;;7.88;87.43;96055.56;5989911;24;20258;-87
2023/04/17 19:31:03;;;;;;;;;;;;;;;;;;;;;
2023/04/17 20:14:54;;;;;;;;;;;;;;;;;;;;;
2023/04/17 20:53:20;;;;;;;9.47;8.13;;;;;;;7.56;88.59;96027.00;6133680;23;20214;-83
